Aérodrome :
LOGIN :

S'inscrire | Disclaimer

   EN    FR    IT 

 










Légende :    VFR   VFR Marginal   IFR   IFR Intensif   IFR Très Intensif
Visi : 
Plafond : 
>= 8 km
>= 3000ft
5 à 8 km
1000 à 3000 ft
1500m à 5 km
500 à 1000 ft
800 à 1500m
200 à 500 ft
< 800m
< 200 ft
Symboles :   Orages  Brouillard  Fortes neiges  Fortes précipitations  Vent > 20 kt
SIGMETs :   Divers  Orages  Givrage  Turbulence  Onde Orograph.  Cendres Volcan.







- Altitude de l'aérodrome : 28 ft
- Code IATA : SOZ
- Voir les cartes d'approche


LFKS - Solenzara

DERNIER METAR :
  • 221200Z AUTO 01008KT 9999 OVC054 09/05 Q1001

METARs EXPIRÉS :
  • 221130Z AUTO 36008KT 9999 FEW025 OVC048 09/06 Q1002
  • 221100Z AUTO 02007KT 9999 -DZ BKN028 BKN034 OVC041 08/06 Q1002
  • 221030Z AUTO 36005KT 9999 -RADZ BKN030 OVC036 08/05 Q1002
  • 221000Z AUTO 33004KT 310V010 9999 -RA BKN029/// BKN036/// OVC043/// ///TCU 07/06 Q1002
  • 220930Z AUTO 36007KT 9999 4700 RA BKN035 OVC041 08/06 Q1002

TAF TAF LFKS
Valide du 22 à 09h jusqu'au 23 à 09h UTC


220800Z 2209/2309 02010KT 9999 SCT030
TEMPO 2209/2215 SCT020TCU
BECMG 2220/2222 4000 RA BKN020
TEMPO 2221/2224 SCT015 SCT020TCU BKN025
PROB30
TEMPO 2221/2224 SCT015 SCT020CB BKN025
BECMG 2301/2303 8000 -RA
BECMG 2305/2307 SCT030
Pas de NOTAMs connus pour ce terrain.
1 SIGMET publié pour la FIR Marseille (LFMM) :
 
Turbulence forte
LFMM SIGMET 6 VALID 221100/221500 LFPW
LFMM MARSEILLE FIR/UIR SEV TURB FCST W OF LINE N4200 E00415 - N4345 E00245 SFC/FL050 STNR WKN=



MET'MAP, la Météo Aéronautique d'un coup d'oeil ! - Copyright ORBIFLY Décembre 2007 - Disclaimer

ORBIFLY MET'MAP TEAM :

Programmation & Développement : Alexandra Zaïnal
Conception & Développement : Baudouin d'Aumeries
Co-Programmation & Développement : Marc-Olivier Méhu
Soutien technique & logistique : Manuel Goepfert

Contact : metmap@orbifly.com




SOURCES & CREDITS :

   NOAA